Flight Track Log - Related Links

Times and Time Zones

All times are in EDT time to prevent confusion due to time zone crossing. See the EJA396 flight status page for this flight to view local times or setup timezone preferences in your user account.

Time Position Orientation Groundspeed Altitude Reporting Facility
EDT Latitude Longitude Course Direction KTS MPH feet Rate Location/Type
Tue 03:19:29 PM 32.7667 -117.2667 301° West 209 241 7,000  Level Southern California TRACON
Tue 03:20:29 PM 32.8000 -117.3333 301° West 251 289 9,900 1,636 Climbing Southern California TRACON
Tue 03:21:19 PM 32.8278 -117.3828 304° West 250 288 10,000 54 Climbing Los Angeles Center
Tue 03:22:21 PM 32.8681 -117.4522 305° West 254 292 10,000  Level Los Angeles Center
Tue 03:23:23 PM 32.9131 -117.5153 310° West 253 291 10,000  Level Los Angeles Center
Tue 03:24:25 PM 32.9772 -117.5889 316° Northwest 262 302 10,000  Level Los Angeles Center
Tue 03:25:28 PM 33.0300 -117.6522 315° West 267 307 10,000  Level Los Angeles Center
Tue 03:26:30 PM 33.0811 -117.7150 314° West 267 307 10,000  Level Los Angeles Center
Tue 03:27:32 PM 33.1347 -117.7792 315° West 267 307 10,000 -387 Level Los Angeles Center
Tue 03:28:34 PM 33.1939 -117.8300 324° Northwest 266 306 9,200 -968 Descending Los Angeles Center
Tue 03:29:36 PM 33.2678 -117.8864 327° Northwest 265 305 8,000 -677 Descending Los Angeles Center
Tue 03:30:38 PM 33.3267 -117.9331 326° Northwest 259 298 7,800 -581 Descending Los Angeles Center
Tue 03:31:40 PM 33.3836 -117.9800 325° Northwest 254 292 6,800 -864 Descending Los Angeles Center
Tue 03:32:43 PM 33.4408 -118.0239 327° Northwest 250 288 6,000 -384 Descending Los Angeles Center
Tue 03:33:45 PM 33.5139 -118.0361 352° North 262 302 6,000 -290 Level Los Angeles Center
Tue 03:34:47 PM 33.5844 -118.0217 10° North 262 302 5,400 -577 Descending Los Angeles Center
Tue 03:35:29 PM 33.6500 -118.0000 15° North 270 311 5,000 -1,223 Descending Southern California TRACON
Tue 03:36:30 PM 33.7000 -117.9500 40° Northeast 244 281 3,300 -1,289 Descending Southern California TRACON
Tue 03:37:30 PM 33.7500 -117.9000 40° Northeast 207 238 2,400 -900 Descending Southern California TRACON
Tue 03:38:30 PM 33.7333 -117.8500 112° Southeast 147 169 1,500 -800 Descending Southern California TRACON
Tue 03:39:30 PM 33.7000 -117.8500 180° South 117 135 800 -700 Descending Southern California TRACON

Login

Don't have an account? Register now (free) for customized features, flight alerts, and more!